createdAt,value
2023-04-13T00:02:20.793Z,9.40
2023-04-13T00:04:50.776Z,9.40
2023-04-13T00:07:18.562Z,9.40
2023-04-13T00:09:47.351Z,9.30
2023-04-13T00:12:15.766Z,9.27
2023-04-13T00:14:43.969Z,9.25
2023-04-13T00:17:11.066Z,9.25
2023-04-13T00:19:38.007Z,9.37
2023-04-13T00:22:04.703Z,9.33
2023-04-13T00:24:31.397Z,9.12
2023-04-13T00:26:58.109Z,9.05
2023-04-13T00:29:24.767Z,9.07
2023-04-13T00:31:51.605Z,8.95
2023-04-13T00:34:18.360Z,9.06
2023-04-13T00:36:45.564Z,9.04
2023-04-13T00:39:13.503Z,8.98
2023-04-13T00:41:40.251Z,8.95
2023-04-13T00:44:09.123Z,9.04
2023-04-13T00:46:36.023Z,9.01
2023-04-13T00:49:03.278Z,8.86
2023-04-13T00:51:30.327Z,8.87
2023-04-13T00:53:59.454Z,8.83
2023-04-13T00:56:27.264Z,8.80
2023-04-13T00:58:56.408Z,8.75
2023-04-13T01:01:23.968Z,8.77
2023-04-13T01:03:53.457Z,8.79
2023-04-13T01:06:31.946Z,8.61
2023-04-13T01:09:09.352Z,8.65
2023-04-13T01:11:39.551Z,8.62
2023-04-13T01:14:13.109Z,8.61
2023-04-13T01:16:53.272Z,8.73
2023-04-13T01:19:51.644Z,8.76
2023-04-13T01:22:23.067Z,8.97
2023-04-13T01:25:14.500Z,8.95
2023-04-13T01:27:59.156Z,9.06
2023-04-13T01:30:32.448Z,9.07
2023-04-13T01:33:02.099Z,9.05
2023-04-13T01:35:30.854Z,8.93
2023-04-13T01:37:59.030Z,9.03
2023-04-13T01:40:28.857Z,8.98
2023-04-13T01:42:57.525Z,9.01
2023-04-13T01:45:49.870Z,8.96
2023-04-13T01:48:25.004Z,9.02
2023-04-13T01:51:13.991Z,8.93
2023-04-13T01:53:53.498Z,8.95
2023-04-13T01:56:23.058Z,8.96
2023-04-13T01:58:58.706Z,8.85
2023-04-13T02:01:26.781Z,8.80
2023-04-13T02:03:53.725Z,8.61
2023-04-13T02:06:21.013Z,8.75
2023-04-13T02:08:49.517Z,8.78
2023-04-13T02:11:19.554Z,8.82
2023-04-13T02:13:46.276Z,8.91
2023-04-13T02:16:36.499Z,9.14
2023-04-13T02:19:03.253Z,9.11
2023-04-13T02:21:30.647Z,9.00
2023-04-13T02:23:57.486Z,9.02
2023-04-13T02:26:26.035Z,9.03
2023-04-13T02:28:52.750Z,9.05
2023-04-13T02:31:20.023Z,8.92
2023-04-13T02:33:47.312Z,9.10
2023-04-13T02:36:15.366Z,9.08
2023-04-13T02:38:50.067Z,9.12
2023-04-13T02:41:23.258Z,9.05
2023-04-13T02:43:50.917Z,8.86
2023-04-13T02:46:19.368Z,8.96
2023-04-13T02:48:48.522Z,8.91
2023-04-13T02:51:15.216Z,8.86
2023-04-13T02:53:43.487Z,8.90
2023-04-13T02:56:10.810Z,8.96
2023-04-13T02:58:37.839Z,9.11
2023-04-13T03:01:08.506Z,9.12
2023-04-13T03:03:35.778Z,8.95
2023-04-13T03:06:02.809Z,8.93
2023-04-13T03:08:41.327Z,8.82
2023-04-13T03:11:14.121Z,8.66
2023-04-13T03:13:47.212Z,8.69
2023-04-13T03:16:17.487Z,8.63
2023-04-13T03:18:45.609Z,8.67
2023-04-13T03:21:14.077Z,8.69
2023-04-13T03:23:49.145Z,8.86
2023-04-13T03:26:17.607Z,8.77
2023-04-13T03:28:44.353Z,8.74
2023-04-13T03:31:11.617Z,8.65
2023-04-13T03:33:38.526Z,8.76
2023-04-13T03:36:08.478Z,8.71
2023-04-13T03:38:36.963Z,8.79
2023-04-13T03:41:03.888Z,8.56
2023-04-13T03:43:32.449Z,8.57
2023-04-13T03:46:04.093Z,8.64
2023-04-13T03:48:31.890Z,8.46
2023-04-13T03:51:00.949Z,8.40
2023-04-13T03:53:36.272Z,8.55
2023-04-13T03:56:03.064Z,8.63
2023-04-13T03:58:32.398Z,8.54
2023-04-13T04:00:59.762Z,8.73
2023-04-13T04:03:39.244Z,8.62
2023-04-13T04:06:08.955Z,8.58
2023-04-13T04:08:38.010Z,8.49
2023-04-13T04:11:09.069Z,8.51
2023-04-13T04:13:36.134Z,8.39
2023-04-13T04:16:08.915Z,8.40
2023-04-13T04:18:39.312Z,8.33
2023-04-13T04:21:07.852Z,8.42
2023-04-13T04:23:37.896Z,8.43
2023-04-13T04:26:06.264Z,8.32
2023-04-13T04:28:41.835Z,8.48
2023-04-13T04:31:13.210Z,8.34
2023-04-13T04:33:44.372Z,8.17
2023-04-13T04:36:14.018Z,8.16
2023-04-13T04:38:51.618Z,8.14
2023-04-13T04:41:20.921Z,8.28
2023-04-13T04:43:51.453Z,8.12
2023-04-13T04:46:19.173Z,8.15
2023-04-13T04:48:52.933Z,8.11
2023-04-13T04:51:25.139Z,8.21
2023-04-13T04:53:53.202Z,8.07
2023-04-13T04:56:22.946Z,8.01
2023-04-13T04:58:52.636Z,8.10
2023-04-13T05:01:26.528Z,8.21
2023-04-13T05:04:02.999Z,8.11
2023-04-13T05:06:34.697Z,8.10
2023-04-13T05:09:06.783Z,8.14
2023-04-13T05:11:36.406Z,8.27
2023-04-13T05:14:05.368Z,8.22
2023-04-13T05:16:34.237Z,8.12
2023-04-13T05:19:08.945Z,8.11
2023-04-13T05:21:59.665Z,8.16
2023-04-13T05:24:27.111Z,8.34
2023-04-13T05:26:56.819Z,8.35
2023-04-13T05:29:23.529Z,8.18
2023-04-13T05:31:50.323Z,8.20
2023-04-13T05:34:18.404Z,8.29
2023-04-13T05:37:01.644Z,8.30
2023-04-13T05:39:28.357Z,8.23
2023-04-13T05:41:54.958Z,8.17
2023-04-13T05:44:22.413Z,8.14
2023-04-13T05:46:52.111Z,8.10
2023-04-13T05:49:18.924Z,8.26
2023-04-13T05:51:46.113Z,8.37
2023-04-13T05:54:14.048Z,8.16
2023-04-13T05:56:47.240Z,8.34
2023-04-13T05:59:14.402Z,8.41
2023-04-13T06:01:41.296Z,8.46
2023-04-13T06:04:10.037Z,8.67
2023-04-13T06:06:36.841Z,8.40
2023-04-13T06:09:06.453Z,8.57
2023-04-13T06:11:33.237Z,8.44
2023-04-13T06:14:00.293Z,8.41
2023-04-13T06:16:27.100Z,8.47
2023-04-13T06:18:54.681Z,8.39
2023-04-13T06:21:21.428Z,8.54
2023-04-13T06:23:49.230Z,8.54
2023-04-13T06:26:28.835Z,8.46
2023-04-13T06:28:57.190Z,8.53
2023-04-13T06:31:27.727Z,8.51
2023-04-13T06:33:56.745Z,8.62
2023-04-13T06:36:27.920Z,8.64
2023-04-13T06:38:56.483Z,8.62
2023-04-13T06:41:23.547Z,8.59
2023-04-13T06:43:50.869Z,8.69
2023-04-13T06:46:32.290Z,8.50
2023-04-13T06:49:07.490Z,8.92
2023-04-13T06:51:34.296Z,8.56
2023-04-13T06:54:01.222Z,8.68
2023-04-13T06:56:28.118Z,8.61
2023-04-13T06:59:00.823Z,8.67
2023-04-13T07:01:29.048Z,8.63
2023-04-13T07:03:56.809Z,8.67
2023-04-13T07:06:24.353Z,8.52
2023-04-13T07:08:52.556Z,8.62
2023-04-13T07:11:19.305Z,8.54
2023-04-13T07:13:47.266Z,8.59
2023-04-13T07:16:15.706Z,8.70
2023-04-13T07:18:45.818Z,8.41
2023-04-13T07:21:12.528Z,8.46
2023-04-13T07:23:55.466Z,8.61
2023-04-13T07:26:22.979Z,8.52
2023-04-13T07:28:49.917Z,8.52
2023-04-13T07:31:17.436Z,8.27
2023-04-13T07:33:47.612Z,8.13
2023-04-13T07:36:17.892Z,8.52
2023-04-13T07:38:49.020Z,8.61
2023-04-13T07:41:22.031Z,8.40
2023-04-13T07:43:52.339Z,8.08
2023-04-13T07:46:20.520Z,8.25
2023-04-13T07:48:49.495Z,8.21
2023-04-13T07:51:23.041Z,8.38
2023-04-13T07:53:52.499Z,8.35
2023-04-13T07:56:19.867Z,8.20
2023-04-13T07:58:46.662Z,8.31
2023-04-13T08:01:13.286Z,8.36
2023-04-13T08:03:40.036Z,8.66
2023-04-13T08:06:14.215Z,8.81
2023-04-13T08:08:41.371Z,8.48
2023-04-13T08:11:08.709Z,8.83
2023-04-13T08:13:35.830Z,9.01
2023-04-13T08:16:03.082Z,9.03
2023-04-13T08:18:32.125Z,8.80
2023-04-13T08:21:00.037Z,8.85
2023-04-13T08:23:29.285Z,8.62
2023-04-13T08:25:57.588Z,8.56
2023-04-13T08:28:24.355Z,8.58
2023-04-13T08:30:51.358Z,8.57
2023-04-13T08:33:18.605Z,8.81
2023-04-13T08:35:45.538Z,8.72
2023-04-13T08:38:13.999Z,8.99
2023-04-13T08:40:48.873Z,9.33
2023-04-13T08:43:21.836Z,9.59
2023-04-13T08:45:48.953Z,9.31
2023-04-13T08:48:19.248Z,9.97
2023-04-13T08:50:48.219Z,9.85
2023-04-13T08:53:18.188Z,10.07
2023-04-13T08:55:47.653Z,9.87
2023-04-13T08:58:23.381Z,10.22
2023-04-13T09:00:51.016Z,10.29
2023-04-13T09:03:24.725Z,10.21
2023-04-13T09:06:02.119Z,10.30
2023-04-13T09:08:35.791Z,10.12
2023-04-13T09:11:05.359Z,9.67
2023-04-13T09:13:32.079Z,9.63
2023-04-13T09:16:01.460Z,9.43
2023-04-13T09:18:55.530Z,9.36
2023-04-13T09:21:23.479Z,9.25
2023-04-13T09:23:58.002Z,9.41
2023-04-13T09:26:25.512Z,9.65
2023-04-13T09:28:56.069Z,9.33
2023-04-13T09:31:23.211Z,9.66
2023-04-13T09:33:51.994Z,9.76
2023-04-13T09:36:21.490Z,9.83
2023-04-13T09:38:57.295Z,9.70
2023-04-13T09:41:36.101Z,9.68
2023-04-13T09:44:34.623Z,9.55
2023-04-13T09:47:03.378Z,9.82
2023-04-13T09:49:42.426Z,9.96
2023-04-13T09:52:25.257Z,10.03
2023-04-13T09:54:53.428Z,10.08
2023-04-13T09:57:31.026Z,10.18
2023-04-13T10:00:01.379Z,10.12
2023-04-13T10:02:39.477Z,10.09
2023-04-13T10:05:09.255Z,9.99
2023-04-13T10:07:38.092Z,9.99
2023-04-13T10:10:04.945Z,9.96
2023-04-13T10:12:34.341Z,10.23
2023-04-13T10:15:30.196Z,10.35
2023-04-13T10:18:09.838Z,10.09
2023-04-13T10:20:36.886Z,10.01
2023-04-13T10:23:05.277Z,10.33
2023-04-13T10:25:34.089Z,10.12
2023-04-13T10:28:02.666Z,10.45
2023-04-13T10:30:29.380Z,10.05
2023-04-13T10:33:09.602Z,9.95
2023-04-13T10:35:37.418Z,9.90
2023-04-13T10:38:05.154Z,10.20
2023-04-13T10:40:48.342Z,10.16
2023-04-13T10:43:26.646Z,9.94
2023-04-13T10:46:10.792Z,10.05
2023-04-13T10:48:37.767Z,10.31
2023-04-13T10:51:04.482Z,10.35
2023-04-13T10:53:32.745Z,10.24
2023-04-13T10:56:00.181Z,10.36
2023-04-13T10:58:31.876Z,10.64
2023-04-13T11:00:59.493Z,10.62
2023-04-13T11:03:29.224Z,10.64
2023-04-13T11:05:58.173Z,10.54
2023-04-13T11:08:24.978Z,10.57
2023-04-13T11:10:53.572Z,10.30
2023-04-13T11:13:21.450Z,10.42
2023-04-13T11:15:49.596Z,10.62
2023-04-13T11:18:28.090Z,10.74
2023-04-13T11:20:55.243Z,10.60
2023-04-13T11:23:24.212Z,10.76
2023-04-13T11:25:58.052Z,10.85
2023-04-13T11:28:35.648Z,10.88
2023-04-13T11:31:02.333Z,10.96
2023-04-13T11:33:31.110Z,10.73
2023-04-13T11:36:00.208Z,10.93
2023-04-13T11:38:28.177Z,10.98
2023-04-13T11:43:34.880Z,10.85
2023-04-13T11:46:02.043Z,10.96
2023-04-13T11:48:29.109Z,10.96
2023-04-13T11:50:57.849Z,11.32
2023-04-13T11:53:24.568Z,11.57
2023-04-13T11:55:53.623Z,11.07
2023-04-13T11:58:21.205Z,10.87
2023-04-13T12:00:48.632Z,10.82
2023-04-13T12:05:47.408Z,10.96
2023-04-13T12:08:24.531Z,10.89
2023-04-13T12:11:36.606Z,10.85
2023-04-13T12:17:01.602Z,11.19
2023-04-13T12:19:22.865Z,11.47
2023-04-13T12:21:52.684Z,11.43
2023-04-13T12:24:19.965Z,11.47
2023-04-13T12:29:16.262Z,11.33
2023-04-13T12:31:45.466Z,11.50
2023-04-13T12:34:12.323Z,11.50
2023-04-13T12:36:39.963Z,11.56
2023-04-13T12:39:06.830Z,11.70
2023-04-13T12:41:33.671Z,11.79
2023-04-13T12:44:01.284Z,11.46
2023-04-13T12:46:28.259Z,11.66
2023-04-13T12:48:55.193Z,12.12
2023-04-13T12:51:21.833Z,12.15
2023-04-13T12:53:48.464Z,12.10
2023-04-13T12:56:15.979Z,11.75
2023-04-13T12:58:42.782Z,11.69
2023-04-13T13:01:09.924Z,11.64
2023-04-13T13:03:37.121Z,11.79
2023-04-13T13:06:05.619Z,11.07
2023-04-13T13:08:35.436Z,10.79
2023-04-13T13:11:03.486Z,9.90
2023-04-13T13:13:30.477Z,9.50
2023-04-13T13:15:58.803Z,9.63
2023-04-13T13:18:35.126Z,9.37
2023-04-13T13:21:09.341Z,9.91
2023-04-13T13:23:36.107Z,10.22
2023-04-13T13:26:22.058Z,10.20
2023-04-13T13:28:52.141Z,10.35
2023-04-13T13:31:19.682Z,10.62
2023-04-13T13:33:48.216Z,10.90
2023-04-13T13:36:17.422Z,11.16
2023-04-13T13:38:44.154Z,11.39
2023-04-13T13:41:10.883Z,11.62
2023-04-13T13:43:38.116Z,11.45
2023-04-13T13:46:08.205Z,11.27
2023-04-13T13:48:39.409Z,11.11
2023-04-13T13:51:21.818Z,10.93
2023-04-13T13:53:48.744Z,10.73
2023-04-13T13:56:15.578Z,10.82
2023-04-13T13:58:42.199Z,10.90
2023-04-13T14:01:08.854Z,11.12
2023-04-13T14:03:36.383Z,11.41
2023-04-13T14:06:03.092Z,11.52
2023-04-13T14:08:29.751Z,11.64
2023-04-13T14:10:56.569Z,11.44
2023-04-13T14:13:23.362Z,11.49
2023-04-13T14:15:50.167Z,11.71
2023-04-13T14:18:16.879Z,11.59
2023-04-13T14:20:43.660Z,11.66
2023-04-13T14:23:10.808Z,11.93
2023-04-13T14:25:41.008Z,11.89
2023-04-13T14:28:09.154Z,12.12
2023-04-13T14:30:36.291Z,11.76
2023-04-13T14:33:06.602Z,11.75
2023-04-13T14:35:33.894Z,11.67
2023-04-13T14:38:00.532Z,11.72
2023-04-13T14:40:28.260Z,11.77
2023-04-13T14:42:54.995Z,11.88
2023-04-13T14:45:22.066Z,11.52
2023-04-13T14:47:48.973Z,11.68
2023-04-13T14:50:16.596Z,11.65
2023-04-13T14:52:44.802Z,11.92
2023-04-13T14:55:12.021Z,11.98
2023-04-13T14:57:39.873Z,12.21
2023-04-13T15:00:28.416Z,12.30
2023-04-13T15:02:55.563Z,12.36
2023-04-13T15:05:23.134Z,12.39
2023-04-13T15:07:50.729Z,12.30
2023-04-13T15:10:18.385Z,12.60
2023-04-13T15:12:45.265Z,12.51
2023-04-13T15:15:11.908Z,13.35
2023-04-13T15:17:38.696Z,13.57
2023-04-13T15:20:07.531Z,12.83
2023-04-13T15:22:35.885Z,12.49
2023-04-13T15:25:02.895Z,12.53
2023-04-13T15:27:29.854Z,12.49
2023-04-13T15:30:03.503Z,12.58
2023-04-13T15:32:34.113Z,12.52
2023-04-13T15:35:00.881Z,12.21
2023-04-13T15:37:27.868Z,12.22
2023-04-13T15:39:54.897Z,12.41
2023-04-13T15:42:22.387Z,12.37
2023-04-13T15:44:48.996Z,12.55
2023-04-13T15:47:15.676Z,12.41
2023-04-13T15:49:42.579Z,12.62
2023-04-13T15:52:09.258Z,12.42
2023-04-13T15:54:36.011Z,12.21
2023-04-13T15:57:02.725Z,12.29
2023-04-13T15:59:30.540Z,12.60
2023-04-13T16:01:57.362Z,12.62
2023-04-13T16:04:24.156Z,12.57
2023-04-13T16:07:04.993Z,12.04
2023-04-13T16:09:36.483Z,11.76
2023-04-13T16:12:03.228Z,11.96
2023-04-13T16:14:29.905Z,11.84
2023-04-13T16:17:00.228Z,11.74
2023-04-13T16:19:27.782Z,11.58
2023-04-13T16:21:54.459Z,11.74
2023-04-13T16:24:21.302Z,11.53
2023-04-13T16:26:48.043Z,11.57
2023-04-13T16:29:14.729Z,11.52
2023-04-13T16:31:44.653Z,11.44
2023-04-13T16:34:24.920Z,11.32
2023-04-13T16:36:53.232Z,11.47
2023-04-13T16:39:20.980Z,11.27
2023-04-13T16:41:47.630Z,11.36
2023-04-13T16:44:14.254Z,11.15
2023-04-13T16:46:41.015Z,11.12
2023-04-13T16:49:07.783Z,11.34
2023-04-13T16:51:34.421Z,11.39
2023-04-13T16:54:03.565Z,11.27
2023-04-13T16:56:30.504Z,11.25
2023-04-13T16:58:57.556Z,11.29
2023-04-13T17:01:25.547Z,11.38
2023-04-13T17:03:53.375Z,11.42
2023-04-13T17:06:21.090Z,11.12
2023-04-13T17:08:48.142Z,11.07
2023-04-13T17:11:14.772Z,11.29
2023-04-13T17:13:41.628Z,11.29
2023-04-13T17:16:09.557Z,11.24
2023-04-13T17:18:36.583Z,11.19
2023-04-13T17:21:03.533Z,11.30
2023-04-13T17:23:30.575Z,11.23
2023-04-13T17:26:00.233Z,11.16
2023-04-13T17:28:27.209Z,10.89
2023-04-13T17:30:53.967Z,11.00
2023-04-13T17:33:20.773Z,11.04
2023-04-13T17:35:47.428Z,10.82
2023-04-13T17:38:14.311Z,10.91
2023-04-13T17:40:41.064Z,10.82
2023-04-13T17:43:08.902Z,10.66
2023-04-13T17:45:36.406Z,10.72
2023-04-13T17:48:04.577Z,10.77
2023-04-13T17:50:32.874Z,10.83
2023-04-13T17:53:04.116Z,10.69
2023-04-13T17:55:31.365Z,10.82
2023-04-13T17:57:58.094Z,10.80
2023-04-13T18:00:26.914Z,10.82
2023-04-13T18:02:54.241Z,10.69
2023-04-13T18:05:21.758Z,10.57
2023-04-13T18:07:48.552Z,10.58
2023-04-13T18:10:15.309Z,10.64
2023-04-13T18:12:41.989Z,10.84
2023-04-13T18:15:09.281Z,10.70
2023-04-13T18:17:36.903Z,10.74
2023-04-13T18:20:05.122Z,10.68
2023-04-13T18:22:32.620Z,10.80
2023-04-13T18:24:59.339Z,10.80
2023-04-13T18:27:27.506Z,10.67
2023-04-13T18:29:57.182Z,10.57
2023-04-13T18:32:23.904Z,10.54
2023-04-13T18:34:50.698Z,10.45
2023-04-13T18:37:17.397Z,10.33
2023-04-13T18:39:44.847Z,10.24
2023-04-13T18:42:11.773Z,10.33
2023-04-13T18:44:38.463Z,10.35
2023-04-13T18:47:05.780Z,10.44
2023-04-13T18:49:32.564Z,10.40
2023-04-13T18:51:59.402Z,10.16
2023-04-13T18:54:26.112Z,10.24
2023-04-13T18:56:52.740Z,10.25
2023-04-13T18:59:19.360Z,10.19
2023-04-13T19:01:46.664Z,10.29
2023-04-13T19:04:13.474Z,10.27
2023-04-13T19:06:40.193Z,10.30
2023-04-13T19:09:06.960Z,10.09
2023-04-13T19:11:51.753Z,10.07
2023-04-13T19:14:18.500Z,9.91
2023-04-13T19:16:47.187Z,9.82
2023-04-13T19:19:15.307Z,9.75
2023-04-13T19:21:42.019Z,9.80
2023-04-13T19:24:13.133Z,9.91
2023-04-13T19:26:40.739Z,9.92
2023-04-13T19:29:07.813Z,9.93
2023-04-13T19:31:37.721Z,9.95
2023-04-13T19:34:05.864Z,9.82
2023-04-13T19:36:32.629Z,9.83
2023-04-13T19:39:05.285Z,9.84
2023-04-13T19:41:32.873Z,9.83
2023-04-13T19:44:00.717Z,9.83
2023-04-13T19:46:28.806Z,10.03
2023-04-13T19:48:58.753Z,10.05
2023-04-13T19:51:28.927Z,10.22
2023-04-13T19:53:57.850Z,10.07
2023-04-13T19:56:25.441Z,9.97
2023-04-13T19:58:52.325Z,9.74
2023-04-13T20:01:21.162Z,9.87
2023-04-13T20:03:48.369Z,9.86
2023-04-13T20:06:19.372Z,9.62
2023-04-13T20:08:47.191Z,9.82
2023-04-13T20:11:14.705Z,9.87
2023-04-13T20:13:41.799Z,9.59
2023-04-13T20:16:10.694Z,9.59
2023-04-13T20:18:40.638Z,9.36
2023-04-13T20:21:08.505Z,9.17
2023-04-13T20:23:37.606Z,9.01
2023-04-13T20:26:05.306Z,9.03
2023-04-13T20:28:33.291Z,9.09
2023-04-13T20:31:00.066Z,8.88
2023-04-13T20:33:26.740Z,8.97
2023-04-13T20:35:54.998Z,8.98
2023-04-13T20:38:22.117Z,9.01
2023-04-13T20:40:49.144Z,9.10
2023-04-13T20:43:17.716Z,9.16
2023-04-13T20:45:45.413Z,9.16
2023-04-13T20:50:47.847Z,9.18
2023-04-13T20:53:16.561Z,9.12
2023-04-13T20:55:43.553Z,9.15
2023-04-13T20:58:10.862Z,9.17
2023-04-13T21:00:38.367Z,9.17
2023-04-13T21:03:08.793Z,9.23
2023-04-13T21:05:36.318Z,9.07
2023-04-13T21:08:03.099Z,9.02
2023-04-13T21:10:29.967Z,9.06
2023-04-13T21:12:57.012Z,9.01
2023-04-13T21:15:23.869Z,9.02
2023-04-13T21:17:50.868Z,9.08
2023-04-13T21:20:17.821Z,8.96
2023-04-13T21:22:44.680Z,8.79
2023-04-13T21:25:11.566Z,8.68
2023-04-13T21:27:39.031Z,8.68
2023-04-13T21:30:06.340Z,8.79
2023-04-13T21:32:32.981Z,8.66
2023-04-13T21:35:02.759Z,8.74
2023-04-13T21:37:29.929Z,8.61
2023-04-13T21:39:57.753Z,8.77
2023-04-13T21:42:24.547Z,8.71
2023-04-13T21:44:53.563Z,8.85
2023-04-13T21:47:20.732Z,8.54
2023-04-13T21:49:47.524Z,8.38
2023-04-13T21:52:14.483Z,8.33
2023-04-13T21:54:41.741Z,8.30
2023-04-13T21:57:09.873Z,8.47
2023-04-13T21:59:36.616Z,8.38
2023-04-13T22:02:03.613Z,8.66
2023-04-13T22:04:30.635Z,8.84
2023-04-13T22:06:57.573Z,8.90
2023-04-13T22:09:24.312Z,8.72
2023-04-13T22:11:51.802Z,8.61
2023-04-13T22:14:19.180Z,8.36
2023-04-13T22:16:47.704Z,8.26
2023-04-13T22:19:15.259Z,8.21
2023-04-13T22:21:42.016Z,8.11
2023-04-13T22:24:08.687Z,8.09
2023-04-13T22:26:35.494Z,8.16
2023-04-13T22:29:02.437Z,8.32
2023-04-13T22:31:29.405Z,8.39
2023-04-13T22:33:56.884Z,8.52
2023-04-13T22:36:23.952Z,8.33
2023-04-13T22:38:50.690Z,8.22
2023-04-13T22:41:17.485Z,8.21
2023-04-13T22:43:44.185Z,8.01
2023-04-13T22:46:11.205Z,8.01
2023-04-13T22:48:37.827Z,8.04
2023-04-13T22:51:04.659Z,8.09
2023-04-13T22:53:31.574Z,8.06
2023-04-13T22:55:59.356Z,8.26
2023-04-13T22:58:26.656Z,8.15
2023-04-13T23:00:53.314Z,8.03
2023-04-13T23:03:21.570Z,8.09
2023-04-13T23:05:48.652Z,8.12
2023-04-13T23:08:15.349Z,8.25
2023-04-13T23:10:42.020Z,8.44
2023-04-13T23:13:08.663Z,8.69
2023-04-13T23:15:35.280Z,8.81
2023-04-13T23:18:02.714Z,8.86
2023-04-13T23:20:29.719Z,8.79
2023-04-13T23:22:56.364Z,8.83
2023-04-13T23:25:23.027Z,8.76
2023-04-13T23:27:49.742Z,8.72
2023-04-13T23:30:16.482Z,8.67
2023-04-13T23:32:43.322Z,8.76
2023-04-13T23:35:10.193Z,8.73
2023-04-13T23:37:36.945Z,8.65
2023-04-13T23:40:03.875Z,8.60
2023-04-13T23:42:31.025Z,8.68
2023-04-13T23:44:57.703Z,8.56
2023-04-13T23:47:25.087Z,8.25
2023-04-13T23:49:54.097Z,8.52
2023-04-13T23:52:20.813Z,8.50
2023-04-13T23:54:47.600Z,8.46
2023-04-13T23:57:14.561Z,8.51
2023-04-13T23:59:41.228Z,8.09
